createdAt,value
2022-09-07T00:01:01.585Z,0.13
2022-09-07T00:06:01.570Z,0.1
2022-09-07T00:11:01.600Z,0.1
2022-09-07T00:16:01.627Z,0.15
2022-09-07T00:21:01.588Z,0.19
2022-09-07T00:26:01.629Z,0.13
2022-09-07T00:31:01.624Z,0.12
2022-09-07T00:36:01.604Z,0.1
2022-09-07T00:41:01.622Z,0.1
2022-09-07T00:46:01.621Z,0.12
2022-09-07T00:51:01.612Z,0.12
2022-09-07T00:56:01.622Z,0.14
2022-09-07T01:01:01.601Z,0.1
2022-09-07T01:06:01.636Z,0.1
2022-09-07T01:11:01.616Z,0.1
2022-09-07T01:16:01.671Z,0.1
2022-09-07T01:21:01.630Z,0.1
2022-09-07T01:26:01.634Z,0.1
2022-09-07T01:31:01.732Z,0.1
2022-09-07T01:36:01.614Z,0.1
2022-09-07T01:41:01.622Z,0.1
2022-09-07T01:46:01.732Z,0.18
2022-09-07T01:51:01.624Z,0.1
2022-09-07T01:56:01.641Z,0.08
2022-09-07T02:01:01.645Z,0.09
2022-09-07T02:06:01.632Z,0.1
2022-09-07T02:11:01.639Z,0.1
2022-09-07T02:16:01.699Z,0.1
2022-09-07T02:21:01.660Z,0.13
2022-09-07T02:26:01.645Z,0.1
2022-09-07T02:31:01.716Z,0.1
2022-09-07T02:36:01.620Z,0.08
2022-09-07T02:41:01.643Z,0.11
2022-09-07T02:46:01.758Z,0.12
2022-09-07T02:51:01.655Z,0.04
2022-09-07T02:56:01.654Z,0.06
2022-09-07T03:01:01.762Z,0.12
2022-09-07T03:06:01.678Z,0.08
2022-09-07T03:11:01.664Z,0.05
2022-09-07T03:16:01.728Z,0.1
2022-09-07T03:21:01.689Z,0.03
2022-09-07T03:26:02.149Z,0.06
2022-09-07T03:31:01.734Z,0.04
2022-09-07T03:36:01.702Z,0.08
2022-09-07T03:41:01.689Z,0.06
2022-09-07T03:46:01.743Z,0.06
2022-09-07T03:51:01.649Z,0.05
2022-09-07T03:56:01.679Z,0.09
2022-09-07T04:01:01.741Z,0.07
2022-09-07T04:06:01.701Z,0.07
2022-09-07T04:11:01.688Z,0.19
2022-09-07T04:16:01.639Z,0.13
2022-09-07T04:21:01.660Z,0.09
2022-09-07T04:26:01.704Z,0.02
2022-09-07T04:31:01.750Z,0.02
2022-09-07T04:36:01.696Z,0.05
2022-09-07T04:41:01.687Z,0.05
2022-09-07T04:46:01.777Z,0.06
2022-09-07T04:51:05.292Z,0
2022-09-07T04:56:01.712Z,0.04
2022-09-07T05:01:01.798Z,0.07
2022-09-07T05:06:01.702Z,0
2022-09-07T05:11:01.708Z,0
2022-09-07T05:16:01.718Z,0.05
2022-09-07T05:21:01.679Z,0.01
2022-09-07T05:26:01.716Z,0.07
2022-09-07T05:31:17.237Z,0
2022-09-07T05:36:01.744Z,0
2022-09-07T05:41:01.703Z,0.03
2022-09-07T05:46:01.856Z,0.05
2022-09-07T05:51:01.704Z,0
2022-09-07T05:56:05.192Z,0.01
2022-09-07T06:01:01.762Z,0
2022-09-07T06:06:01.688Z,0.1
2022-09-07T06:11:01.739Z,0.01
2022-09-07T06:16:01.743Z,0.05
2022-09-07T06:21:01.736Z,0.03
2022-09-07T06:26:01.750Z,0
2022-09-07T06:31:01.769Z,0.02
2022-09-07T06:36:01.745Z,0.01
2022-09-07T06:51:01.755Z,0
2022-09-07T06:56:01.765Z,0.02
2022-09-07T07:01:01.806Z,0.01
2022-09-07T07:06:01.777Z,0
2022-09-07T07:11:01.728Z,0.03
2022-09-07T07:16:01.909Z,0.05
2022-09-07T07:21:01.762Z,0
2022-09-07T07:26:01.743Z,0
2022-09-07T07:31:03.934Z,0
2022-09-07T07:36:01.765Z,0
2022-09-07T07:46:03.879Z,0.05
2022-09-07T07:51:06.409Z,0
2022-09-07T07:56:01.812Z,0.02
2022-09-07T08:01:01.816Z,0.04
2022-09-07T08:06:01.772Z,0.02
2022-09-07T08:11:01.800Z,0.03
2022-09-07T08:16:01.822Z,0.07
2022-09-07T08:21:01.763Z,0.05
2022-09-07T08:26:01.797Z,0.08
2022-09-07T08:31:01.806Z,0.09
2022-09-07T08:36:01.798Z,0.1
2022-09-07T08:41:01.796Z,0
2022-09-07T08:46:01.849Z,0.01
2022-09-07T08:51:01.803Z,0
2022-09-07T08:56:01.833Z,0.05
2022-09-07T09:01:31.252Z,0.01
2022-09-07T09:06:01.908Z,0.06
2022-09-07T09:11:01.812Z,0.05
2022-09-07T09:16:01.878Z,0.03
2022-09-07T09:21:01.839Z,0.05
2022-09-07T09:26:01.875Z,0.03
2022-09-07T09:31:01.879Z,0.03
2022-09-07T09:36:01.850Z,0.03
2022-09-07T09:41:01.830Z,0.03
2022-09-07T09:46:14.476Z,0.06
2022-09-07T09:56:01.849Z,0.09
2022-09-07T10:01:24.971Z,0.08
2022-09-07T10:06:01.843Z,0.06
2022-09-07T10:11:01.844Z,0.05
2022-09-07T10:16:01.983Z,0.1
2022-09-07T10:21:01.847Z,0.1
2022-09-07T10:26:01.840Z,0.11
2022-09-07T10:31:01.891Z,0.1
2022-09-07T10:36:01.847Z,0.1
2022-09-07T10:41:01.831Z,0.1
2022-09-07T10:46:01.923Z,0.08
2022-09-07T10:51:09.977Z,0.1
2022-09-07T10:56:01.887Z,0.13
2022-09-07T11:01:02.180Z,0.16
2022-09-07T11:06:01.872Z,0.1
2022-09-07T11:11:01.908Z,0.1
2022-09-07T11:16:02.174Z,0.1
2022-09-07T11:21:01.873Z,0.1
2022-09-07T11:26:01.890Z,0.13
2022-09-07T11:31:01.934Z,0.1
2022-09-07T11:36:01.878Z,0.11
2022-09-07T11:41:01.978Z,0.1
2022-09-07T11:46:01.924Z,0.11
2022-09-07T11:51:01.893Z,0.1
2022-09-07T11:56:01.867Z,0.15
2022-09-07T12:01:01.907Z,0.14
2022-09-07T12:06:01.907Z,0.08
2022-09-07T12:11:01.907Z,0.11
2022-09-07T12:16:01.934Z,0.03
2022-09-07T12:21:01.910Z,0.1
2022-09-07T12:26:01.903Z,0.1
2022-09-07T12:31:01.977Z,0.1
2022-09-07T12:36:01.906Z,0.14
2022-09-07T12:41:01.913Z,0.12
2022-09-07T12:46:02.034Z,0.1
2022-09-07T12:51:01.919Z,0.15
2022-09-07T12:56:17.521Z,0.1
2022-09-07T13:01:01.950Z,0.29
2022-09-07T13:06:01.923Z,0.1
2022-09-07T13:11:01.927Z,0.08
2022-09-07T13:16:01.959Z,0.09
2022-09-07T13:21:01.914Z,0.1
2022-09-07T13:26:01.891Z,0.14
2022-09-07T13:31:02.001Z,0.16
2022-09-07T13:36:01.938Z,0.1
2022-09-07T13:41:01.959Z,0.1
2022-09-07T13:46:02.054Z,0.1
2022-09-07T13:51:01.915Z,0.03
2022-09-07T13:56:01.959Z,0.09
2022-09-07T14:01:01.988Z,0.08
2022-09-07T14:06:01.952Z,0.08
2022-09-07T14:11:01.936Z,0.06
2022-09-07T14:16:01.983Z,0.01
2022-09-07T14:21:01.973Z,0.07
2022-09-07T14:26:17.940Z,0.12
2022-09-07T14:31:01.977Z,0.1
2022-09-07T14:36:13.226Z,0.08
2022-09-07T14:41:01.957Z,0.03
2022-09-07T14:46:02.103Z,0.11
2022-09-07T14:51:26.906Z,0.05
2022-09-07T14:56:02.015Z,0.02
2022-09-07T15:06:01.969Z,0
2022-09-07T15:16:02.243Z,0.01
2022-09-07T15:21:02.246Z,0
2022-09-07T15:26:02.132Z,0
2022-09-07T15:36:01.981Z,0
2022-09-07T15:41:22.213Z,0
2022-09-07T15:46:03.644Z,0.14
2022-09-07T15:51:02.089Z,0.01
2022-09-07T15:56:03.132Z,0.03
2022-09-07T16:06:02.020Z,0.02
2022-09-07T16:11:06.422Z,0
2022-09-07T16:16:02.012Z,0.01
2022-09-07T16:21:02.012Z,0
2022-09-07T16:26:02.053Z,0.05
2022-09-07T16:31:02.012Z,0.17
2022-09-07T16:36:02.013Z,0.09
2022-09-07T16:41:02.031Z,0.03
2022-09-07T16:46:03.452Z,0.06
2022-09-07T16:51:02.847Z,0.05
2022-09-07T16:56:02.052Z,0.01
2022-09-07T17:01:02.098Z,0.02
2022-09-07T17:06:02.034Z,0.08
2022-09-07T17:11:02.044Z,0.06
2022-09-07T17:16:02.087Z,0.03
2022-09-07T17:21:02.059Z,0.02
2022-09-07T17:26:02.016Z,0.08
2022-09-07T17:31:02.038Z,0.07
2022-09-07T17:36:02.048Z,0.09
2022-09-07T17:41:02.034Z,0.04
2022-09-07T17:46:02.188Z,0
2022-09-07T17:51:02.040Z,0.1
2022-09-07T17:56:02.025Z,0.06
2022-09-07T18:01:02.091Z,0.02
2022-09-07T18:06:02.043Z,0.06
2022-09-07T18:16:02.089Z,0.14
2022-09-07T18:21:02.083Z,0.02
2022-09-07T18:26:02.068Z,0.01
2022-09-07T18:31:02.087Z,0
2022-09-07T18:36:02.084Z,0.01
2022-09-07T18:41:02.073Z,0.02
2022-09-07T18:46:02.130Z,0.03
2022-09-07T18:51:02.086Z,0.05
2022-09-07T18:56:02.080Z,0.03
2022-09-07T19:01:02.227Z,0
2022-09-07T19:06:02.081Z,0.03
2022-09-07T19:11:02.079Z,0
2022-09-07T19:16:02.119Z,0
2022-09-07T19:21:02.116Z,0
2022-09-07T19:26:02.099Z,0
2022-09-07T19:31:02.113Z,0.03
2022-09-07T19:36:02.090Z,0
2022-09-07T19:41:02.090Z,0.01
2022-09-07T19:46:02.111Z,0
2022-09-07T19:51:02.136Z,0
2022-09-07T19:56:02.104Z,0
2022-09-07T20:01:02.180Z,0
2022-09-07T20:06:02.110Z,0
2022-09-07T20:11:02.120Z,0
2022-09-07T20:16:02.134Z,0.03
2022-09-07T20:21:02.142Z,0
2022-09-07T20:26:02.121Z,0
2022-09-07T20:31:05.074Z,0.04
2022-09-07T20:36:02.094Z,0
2022-09-07T20:41:02.138Z,0
2022-09-07T20:46:02.111Z,0
2022-09-07T20:51:02.194Z,0
2022-09-07T20:56:02.167Z,0
2022-09-07T21:01:02.186Z,0
2022-09-07T21:06:02.153Z,0
2022-09-07T21:11:02.141Z,0
2022-09-07T21:16:02.188Z,0.02
2022-09-07T21:21:19.116Z,0
2022-09-07T21:26:02.138Z,0.05
2022-09-07T21:31:02.198Z,0
2022-09-07T21:36:02.180Z,0
2022-09-07T21:41:02.121Z,0.01
2022-09-07T21:46:05.185Z,0
2022-09-07T21:51:02.178Z,0
2022-09-07T21:56:02.162Z,0
2022-09-07T22:01:02.231Z,0.02
2022-09-07T22:06:02.134Z,0
2022-09-07T22:11:02.159Z,0
2022-09-07T22:16:02.188Z,0
2022-09-07T22:21:02.161Z,0
2022-09-07T22:26:02.160Z,0
2022-09-07T22:31:02.168Z,0
2022-09-07T22:36:02.197Z,0
2022-09-07T22:41:02.176Z,0
2022-09-07T22:46:02.144Z,0.03
2022-09-07T22:51:02.236Z,0
2022-09-07T22:56:02.180Z,0
2022-09-07T23:01:02.181Z,0.01
2022-09-07T23:06:02.193Z,0
2022-09-07T23:11:02.182Z,0
2022-09-07T23:16:02.252Z,0.07
2022-09-07T23:21:02.187Z,0
2022-09-07T23:26:02.201Z,0
2022-09-07T23:31:02.268Z,0.01
2022-09-07T23:36:02.185Z,0.05
2022-09-07T23:41:02.162Z,0
2022-09-07T23:46:02.300Z,0
2022-09-07T23:51:02.221Z,0
2022-09-07T23:56:02.191Z,0
